createdAt,value
2017-12-19T00:00:18.311Z,1.60
2017-12-19T00:03:23.114Z,1.60
2017-12-19T00:06:29.270Z,1.60
2017-12-19T00:09:35.382Z,1.60
2017-12-19T00:12:41.150Z,1.70
2017-12-19T00:15:46.468Z,1.70
2017-12-19T00:18:52.450Z,1.60
2017-12-19T00:21:58.661Z,1.60
2017-12-19T00:25:04.084Z,1.60
2017-12-19T00:28:10.495Z,1.60
2017-12-19T00:31:16.010Z,1.60
2017-12-19T00:34:21.439Z,1.70
2017-12-19T00:37:26.398Z,1.70
2017-12-19T00:40:31.433Z,1.70
2017-12-19T00:43:37.191Z,1.70
2017-12-19T00:46:42.918Z,1.70
2017-12-19T00:49:48.562Z,1.70
2017-12-19T00:52:54.042Z,1.70
2017-12-19T00:55:59.639Z,1.70
2017-12-19T00:59:05.994Z,1.70
2017-12-19T01:02:11.689Z,1.70
2017-12-19T01:05:17.083Z,1.70
2017-12-19T01:08:21.963Z,1.70
2017-12-19T01:11:27.006Z,1.60
2017-12-19T01:14:32.259Z,1.70
2017-12-19T01:17:38.291Z,1.50
2017-12-19T01:20:44.038Z,1.50
2017-12-19T01:23:50.667Z,1.50
2017-12-19T01:26:56.566Z,1.60
2017-12-19T01:30:01.923Z,1.60
2017-12-19T01:33:07.154Z,1.60
2017-12-19T01:36:12.756Z,1.60
2017-12-19T01:39:17.904Z,1.60
2017-12-19T01:42:23.652Z,1.60
2017-12-19T01:45:30.029Z,1.60
2017-12-19T01:48:35.246Z,1.60
2017-12-19T01:51:40.274Z,1.60
2017-12-19T01:54:46.019Z,1.60
2017-12-19T01:57:51.156Z,1.80
2017-12-19T02:00:56.869Z,1.80
2017-12-19T02:04:02.257Z,1.80
2017-12-19T02:07:07.421Z,1.70
2017-12-19T02:10:12.395Z,1.60
2017-12-19T02:13:18.062Z,1.50
2017-12-19T02:16:23.124Z,1.60
2017-12-19T02:19:28.142Z,1.50
2017-12-19T02:22:33.274Z,1.50
2017-12-19T02:25:38.587Z,1.60
2017-12-19T02:28:44.472Z,1.60
2017-12-19T02:31:50.160Z,1.50
2017-12-19T02:34:55.948Z,1.50
2017-12-19T02:38:01.650Z,1.40
2017-12-19T02:41:06.834Z,1.30
2017-12-19T02:44:12.233Z,1.30
2017-12-19T02:47:17.956Z,1.60
2017-12-19T02:50:23.404Z,1.40
2017-12-19T02:53:29.180Z,1.50
2017-12-19T02:56:35.869Z,1.70
2017-12-19T02:59:41.310Z,1.70
2017-12-19T03:02:46.474Z,1.80
2017-12-19T03:05:52.805Z,2.00
2017-12-19T03:08:58.421Z,2.00
2017-12-19T03:12:04.302Z,2.00
2017-12-19T03:15:09.770Z,2.00
2017-12-19T03:18:15.516Z,1.80
2017-12-19T03:21:22.042Z,1.70
2017-12-19T03:24:27.908Z,1.70
2017-12-19T03:27:33.765Z,1.70
2017-12-19T03:30:38.865Z,1.60
2017-12-19T03:33:45.451Z,1.60
2017-12-19T03:36:51.452Z,1.50
2017-12-19T03:39:56.861Z,1.50
2017-12-19T03:43:02.374Z,1.40
2017-12-19T03:46:07.817Z,1.60
2017-12-19T03:49:13.622Z,1.50
2017-12-19T03:52:18.911Z,1.50
2017-12-19T03:55:25.466Z,1.60
2017-12-19T03:58:30.986Z,1.50
2017-12-19T04:01:36.268Z,1.50
2017-12-19T04:04:41.665Z,1.50
2017-12-19T04:07:48.319Z,1.60
2017-12-19T04:10:53.150Z,1.60
2017-12-19T04:13:58.865Z,1.60
2017-12-19T04:17:04.646Z,1.60
2017-12-19T04:20:10.102Z,1.50
2017-12-19T04:23:15.598Z,1.50
2017-12-19T04:26:22.084Z,1.60
2017-12-19T04:29:27.974Z,1.60
2017-12-19T04:32:33.106Z,1.60
2017-12-19T04:35:38.103Z,1.70
2017-12-19T04:38:42.931Z,1.70
2017-12-19T04:41:49.278Z,1.60
2017-12-19T04:44:54.447Z,1.60
2017-12-19T04:48:00.805Z,1.70
2017-12-19T04:51:05.875Z,1.60
2017-12-19T04:54:10.654Z,1.70
2017-12-19T04:57:16.074Z,1.60
2017-12-19T05:00:21.186Z,1.50
2017-12-19T05:03:26.061Z,1.50
2017-12-19T05:06:30.954Z,1.70
2017-12-19T05:09:36.949Z,1.60
2017-12-19T05:12:42.561Z,1.60
2017-12-19T05:15:47.926Z,1.60
2017-12-19T05:18:52.874Z,1.70
2017-12-19T05:21:58.485Z,1.60
2017-12-19T05:25:03.376Z,1.50
2017-12-19T05:28:08.336Z,1.40
2017-12-19T05:31:13.556Z,1.50
2017-12-19T05:34:18.682Z,1.50
2017-12-19T05:37:24.058Z,1.50
2017-12-19T05:40:30.667Z,1.80
2017-12-19T05:43:35.888Z,1.70
2017-12-19T05:46:41.386Z,1.80
2017-12-19T05:49:46.966Z,1.80
2017-12-19T05:52:52.730Z,1.70
2017-12-19T05:55:57.735Z,1.70
2017-12-19T05:59:03.422Z,1.60
2017-12-19T06:02:08.755Z,1.60
2017-12-19T06:05:13.942Z,1.60
2017-12-19T06:08:20.293Z,1.60
2017-12-19T06:11:26.074Z,1.70
2017-12-19T06:14:30.946Z,1.60
2017-12-19T06:17:36.907Z,1.70
2017-12-19T06:20:42.833Z,1.60
2017-12-19T06:23:48.096Z,1.70
2017-12-19T06:26:54.622Z,2.00
2017-12-19T06:30:00.126Z,2.00
2017-12-19T06:33:05.748Z,2.10
2017-12-19T06:36:11.726Z,2.20
2017-12-19T06:39:18.234Z,2.00
2017-12-19T06:42:23.333Z,1.90
2017-12-19T06:45:28.494Z,1.80
2017-12-19T06:48:34.379Z,1.70
2017-12-19T06:51:40.491Z,1.70
2017-12-19T06:54:46.215Z,1.70
2017-12-19T06:57:51.770Z,1.60
2017-12-19T07:00:58.006Z,1.60
2017-12-19T07:04:04.294Z,1.60
2017-12-19T07:07:09.290Z,1.60
2017-12-19T07:10:15.134Z,1.60
2017-12-19T07:13:20.510Z,1.60
2017-12-19T07:16:25.530Z,1.60
2017-12-19T07:19:30.526Z,1.50
2017-12-19T07:22:35.585Z,1.50
2017-12-19T07:25:41.793Z,1.60
2017-12-19T07:28:47.366Z,1.60
2017-12-19T07:31:53.675Z,1.70
2017-12-19T07:34:58.670Z,1.70
2017-12-19T07:38:04.326Z,1.80
2017-12-19T07:41:09.722Z,1.70
2017-12-19T07:44:15.362Z,1.80
2017-12-19T07:47:20.710Z,1.80
2017-12-19T07:50:26.454Z,1.80
2017-12-19T07:53:32.257Z,1.90
2017-12-19T07:56:37.386Z,1.90
2017-12-19T07:59:43.943Z,2.00
2017-12-19T08:02:50.052Z,2.00
2017-12-19T08:05:55.182Z,2.00
2017-12-19T08:09:00.346Z,2.00
2017-12-19T08:12:05.626Z,2.00
2017-12-19T08:15:10.874Z,2.00
2017-12-19T08:18:16.610Z,2.00
2017-12-19T08:21:22.378Z,2.00
2017-12-19T08:24:27.886Z,2.10
2017-12-19T08:27:33.625Z,2.20
2017-12-19T08:30:38.914Z,2.30
2017-12-19T08:33:43.986Z,2.30
2017-12-19T08:36:50.178Z,2.10
2017-12-19T08:39:55.353Z,2.10
2017-12-19T08:43:01.458Z,2.10
2017-12-19T08:46:06.906Z,2.30
2017-12-19T08:49:13.450Z,2.40
2017-12-19T08:52:18.302Z,2.40
2017-12-19T08:55:23.978Z,3.00
2017-12-19T08:58:29.604Z,3.00
2017-12-19T09:01:34.430Z,2.90
2017-12-19T09:04:40.369Z,2.80
2017-12-19T09:07:45.502Z,2.90
2017-12-19T09:10:51.441Z,3.00
2017-12-19T09:13:56.592Z,3.20
2017-12-19T09:17:02.109Z,3.30
2017-12-19T09:20:08.026Z,3.40
2017-12-19T09:23:12.894Z,3.60
2017-12-19T09:26:18.054Z,3.70
2017-12-19T09:29:22.936Z,3.80
2017-12-19T09:32:27.926Z,3.90
2017-12-19T09:35:34.109Z,3.70
2017-12-19T09:38:40.195Z,3.70
2017-12-19T09:41:45.773Z,3.70
2017-12-19T09:44:51.132Z,3.70
2017-12-19T09:47:57.046Z,3.50
2017-12-19T09:51:02.407Z,3.60
2017-12-19T09:54:08.262Z,3.70
2017-12-19T09:57:13.029Z,3.70
2017-12-19T10:00:18.747Z,3.80
2017-12-19T10:03:24.399Z,3.80
2017-12-19T10:06:29.793Z,3.80
2017-12-19T10:09:35.031Z,3.90
2017-12-19T10:12:40.812Z,3.80
2017-12-19T10:15:46.570Z,4.20
2017-12-19T10:18:52.383Z,4.20
2017-12-19T10:21:57.123Z,4.10
2017-12-19T10:25:02.171Z,4.30
2017-12-19T10:28:07.638Z,4.20
2017-12-19T10:31:13.111Z,4.10
2017-12-19T10:34:18.562Z,4.10
2017-12-19T10:37:23.959Z,4.10
2017-12-19T10:40:30.608Z,4.10
2017-12-19T10:43:35.639Z,4.00
2017-12-19T10:46:40.842Z,3.90
2017-12-19T10:49:46.090Z,3.90
2017-12-19T10:52:51.736Z,4.10
2017-12-19T10:55:57.042Z,4.10
2017-12-19T10:59:02.461Z,3.90
2017-12-19T11:02:07.385Z,4.10
2017-12-19T11:05:13.285Z,4.00
2017-12-19T11:08:18.995Z,4.10
2017-12-19T11:11:24.747Z,3.80
2017-12-19T11:14:29.838Z,3.80
2017-12-19T11:17:35.201Z,3.90
2017-12-19T11:20:40.126Z,3.90
2017-12-19T11:23:45.861Z,3.90
2017-12-19T11:26:51.236Z,4.00
2017-12-19T11:29:56.998Z,3.90
2017-12-19T11:33:03.108Z,4.10
2017-12-19T11:36:08.056Z,4.10
2017-12-19T11:39:13.778Z,3.90
2017-12-19T11:42:19.318Z,3.90
2017-12-19T11:45:24.191Z,4.10
2017-12-19T11:48:29.163Z,4.30
2017-12-19T11:51:34.742Z,4.20
2017-12-19T11:54:40.019Z,4.30
2017-12-19T11:57:45.743Z,4.20
2017-12-19T12:00:51.564Z,4.20
2017-12-19T12:03:57.834Z,4.20
2017-12-19T12:07:03.168Z,4.10
2017-12-19T12:10:09.274Z,4.20
2017-12-19T12:13:14.419Z,4.20
2017-12-19T12:16:20.867Z,3.90
2017-12-19T12:19:26.502Z,3.90
2017-12-19T12:22:32.241Z,3.90
2017-12-19T12:25:38.940Z,3.70
2017-12-19T12:28:45.543Z,3.80
2017-12-19T12:31:50.592Z,3.80
2017-12-19T12:34:55.495Z,3.90
2017-12-19T12:38:01.016Z,4.20
2017-12-19T12:41:06.829Z,4.60
2017-12-19T12:44:11.721Z,4.00
2017-12-19T12:47:17.052Z,4.00
2017-12-19T12:50:22.720Z,4.00
2017-12-19T12:53:28.504Z,4.00
2017-12-19T12:56:34.946Z,3.90
2017-12-19T12:59:39.763Z,3.80
2017-12-19T13:02:46.062Z,3.90
2017-12-19T13:05:52.391Z,4.00
2017-12-19T13:09:00.043Z,4.10
2017-12-19T13:12:05.891Z,4.10
2017-12-19T13:15:11.384Z,4.30
2017-12-19T13:18:17.463Z,4.60
2017-12-19T13:21:22.741Z,4.60
2017-12-19T13:24:29.021Z,4.50
2017-12-19T13:27:35.247Z,4.40
2017-12-19T13:30:41.327Z,4.40
2017-12-19T13:33:46.558Z,4.30
2017-12-19T13:36:52.130Z,4.10
2017-12-19T13:39:57.553Z,3.90
2017-12-19T13:43:02.461Z,4.00
2017-12-19T13:46:08.637Z,4.30
2017-12-19T13:49:13.677Z,4.30
2017-12-19T13:52:18.878Z,4.20
2017-12-19T13:55:23.961Z,4.20
2017-12-19T13:58:29.284Z,3.90
2017-12-19T14:01:34.988Z,3.90
2017-12-19T14:04:40.339Z,3.90
2017-12-19T14:07:46.203Z,3.90
2017-12-19T14:10:52.711Z,4.00
2017-12-19T14:13:57.598Z,4.00
2017-12-19T14:17:04.127Z,4.30
2017-12-19T14:20:09.174Z,4.30
2017-12-19T14:23:23.676Z,4.40
2017-12-19T14:26:29.888Z,4.40
2017-12-19T14:29:34.982Z,4.50
2017-12-19T14:32:39.954Z,4.40
2017-12-19T14:35:45.499Z,4.40
2017-12-19T14:38:51.445Z,4.10
2017-12-19T14:41:56.487Z,4.00
2017-12-19T14:45:02.291Z,4.10
2017-12-19T14:48:07.184Z,4.20
2017-12-19T14:51:12.857Z,4.10
2017-12-19T14:54:18.562Z,4.10
2017-12-19T14:57:23.252Z,4.00
2017-12-19T15:00:28.490Z,4.10
2017-12-19T15:03:34.598Z,4.20
2017-12-19T15:06:39.803Z,4.10
2017-12-19T15:09:45.481Z,4.10
2017-12-19T15:12:51.063Z,4.00
2017-12-19T15:15:57.084Z,4.00
2017-12-19T15:19:02.110Z,4.00
2017-12-19T15:22:08.011Z,3.90
2017-12-19T15:25:14.371Z,3.80
2017-12-19T15:28:20.501Z,3.70
2017-12-19T15:31:26.775Z,3.70
2017-12-19T15:34:32.242Z,3.60
2017-12-19T15:37:38.829Z,3.60
2017-12-19T15:40:44.390Z,3.60
2017-12-19T15:43:50.130Z,3.50
2017-12-19T15:46:56.501Z,3.50
2017-12-19T15:50:02.313Z,3.50
2017-12-19T15:53:07.523Z,3.50
2017-12-19T15:56:12.738Z,3.30
2017-12-19T15:59:19.271Z,3.30
2017-12-19T16:02:25.176Z,3.30
2017-12-19T16:05:30.301Z,3.30
2017-12-19T16:08:36.562Z,3.30
2017-12-19T16:11:42.281Z,3.30
2017-12-19T16:14:48.054Z,3.30
2017-12-19T16:17:53.529Z,3.30
2017-12-19T16:20:59.170Z,3.40
2017-12-19T16:24:04.350Z,3.30
2017-12-19T16:27:10.550Z,3.40
2017-12-19T16:30:15.490Z,3.40
2017-12-19T16:33:21.078Z,3.40
2017-12-19T16:36:27.051Z,3.40
2017-12-19T16:39:32.586Z,3.40
2017-12-19T16:42:38.116Z,3.40
2017-12-19T16:45:43.950Z,3.40
2017-12-19T16:48:49.483Z,3.40
2017-12-19T16:51:55.938Z,3.40
2017-12-19T16:55:01.408Z,3.40
2017-12-19T16:58:06.818Z,3.40
2017-12-19T17:01:12.334Z,3.40
2017-12-19T17:04:18.313Z,3.30
2017-12-19T17:07:23.246Z,3.30
2017-12-19T17:10:29.600Z,3.40
2017-12-19T17:13:34.931Z,3.50
2017-12-19T17:16:39.763Z,3.50
2017-12-19T17:19:45.294Z,3.40
2017-12-19T17:22:50.766Z,3.20
2017-12-19T17:25:56.564Z,3.10
2017-12-19T17:29:02.330Z,3.10
2017-12-19T17:32:08.022Z,3.00
2017-12-19T17:35:13.741Z,3.00
2017-12-19T17:38:20.390Z,3.00
2017-12-19T17:41:25.794Z,3.00
2017-12-19T17:44:31.354Z,3.00
2017-12-19T17:47:37.481Z,3.10
2017-12-19T17:50:43.472Z,3.10
2017-12-19T17:53:49.082Z,3.10
2017-12-19T17:56:54.812Z,3.10
2017-12-19T18:00:00.002Z,3.00
2017-12-19T18:03:05.070Z,2.90
2017-12-19T18:06:10.750Z,2.80
2017-12-19T18:09:15.747Z,2.80
2017-12-19T18:12:21.253Z,2.90
2017-12-19T18:15:26.379Z,2.90
2017-12-19T18:18:31.916Z,3.10
2017-12-19T18:21:36.806Z,3.10
2017-12-19T18:24:41.975Z,3.10
2017-12-19T18:27:48.230Z,3.00
2017-12-19T18:30:53.542Z,3.00
2017-12-19T18:33:59.255Z,3.00
2017-12-19T18:37:05.810Z,3.20
2017-12-19T18:40:10.874Z,3.10
2017-12-19T18:43:16.402Z,3.30
2017-12-19T18:46:22.186Z,3.20
2017-12-19T18:49:27.345Z,3.20
2017-12-19T18:52:32.621Z,3.30
2017-12-19T18:55:38.868Z,3.10
2017-12-19T18:58:44.092Z,3.10
2017-12-19T19:01:49.458Z,3.10
2017-12-19T19:04:55.363Z,3.20
2017-12-19T19:08:01.138Z,3.30
2017-12-19T19:11:07.222Z,3.30
2017-12-19T19:14:13.531Z,3.30
2017-12-19T19:17:18.770Z,3.30
2017-12-19T19:20:24.130Z,3.30
2017-12-19T19:23:29.672Z,3.40
2017-12-19T19:26:34.607Z,3.40
2017-12-19T19:29:40.306Z,3.40
2017-12-19T19:32:45.959Z,3.30
2017-12-19T19:35:51.398Z,3.30
2017-12-19T19:38:56.712Z,3.30
2017-12-19T19:42:02.852Z,3.30
2017-12-19T19:45:08.588Z,3.30
2017-12-19T19:48:13.912Z,3.30
2017-12-19T19:51:19.674Z,3.40
2017-12-19T19:54:26.047Z,3.40
2017-12-19T19:57:31.306Z,3.40
2017-12-19T20:00:37.479Z,3.50
2017-12-19T20:03:42.913Z,3.40
2017-12-19T20:06:48.578Z,3.40
2017-12-19T20:09:54.466Z,3.40
2017-12-19T20:12:59.356Z,3.30
2017-12-19T20:16:04.754Z,3.30
2017-12-19T20:19:11.286Z,3.30
2017-12-19T20:22:16.370Z,3.30
2017-12-19T20:25:21.275Z,3.30
2017-12-19T20:28:27.840Z,3.30
2017-12-19T20:31:34.454Z,3.40
2017-12-19T20:34:40.749Z,3.50
2017-12-19T20:37:46.162Z,3.50
2017-12-19T20:40:52.458Z,3.50
2017-12-19T20:43:58.013Z,3.40
2017-12-19T20:47:03.727Z,3.30
2017-12-19T20:50:09.691Z,3.20
2017-12-19T20:53:14.726Z,3.20
2017-12-19T20:56:20.342Z,3.20
2017-12-19T20:59:25.922Z,3.10
2017-12-19T21:02:31.030Z,3.20
2017-12-19T21:05:36.225Z,3.20
2017-12-19T21:08:41.473Z,3.30
2017-12-19T21:11:46.752Z,3.30
2017-12-19T21:14:52.592Z,3.20
2017-12-19T21:17:57.985Z,3.30
2017-12-19T21:21:03.693Z,3.30
2017-12-19T21:24:08.866Z,3.30
2017-12-19T21:27:14.759Z,3.40
2017-12-19T21:30:20.059Z,3.40
2017-12-19T21:33:25.814Z,3.40
2017-12-19T21:36:31.305Z,3.40
2017-12-19T21:39:36.662Z,3.40
2017-12-19T21:42:42.522Z,3.50
2017-12-19T21:45:49.054Z,3.40
2017-12-19T21:48:54.546Z,3.40
2017-12-19T21:52:00.772Z,3.30
2017-12-19T21:55:05.682Z,3.30
2017-12-19T21:58:11.489Z,3.30
2017-12-19T22:01:18.019Z,3.20
2017-12-19T22:04:23.735Z,3.20
2017-12-19T22:07:29.290Z,3.20
2017-12-19T22:10:34.044Z,3.30
2017-12-19T22:13:39.222Z,3.20
2017-12-19T22:16:45.085Z,3.20
2017-12-19T22:19:50.761Z,3.20
2017-12-19T22:22:55.662Z,3.20
2017-12-19T22:26:01.431Z,3.30
2017-12-19T22:29:06.781Z,3.30
2017-12-19T22:32:12.098Z,3.30
2017-12-19T22:35:17.654Z,3.20
2017-12-19T22:38:23.374Z,3.20
2017-12-19T22:41:28.385Z,3.30
2017-12-19T22:44:33.574Z,3.30
2017-12-19T22:47:38.526Z,3.30
2017-12-19T22:50:44.213Z,3.40
2017-12-19T22:53:50.838Z,3.40
2017-12-19T22:56:56.429Z,3.30
2017-12-19T23:00:01.691Z,3.40
2017-12-19T23:03:06.670Z,3.40
2017-12-19T23:06:11.802Z,3.40
2017-12-19T23:09:16.770Z,3.40
2017-12-19T23:12:22.213Z,3.40
2017-12-19T23:15:28.722Z,3.30
2017-12-19T23:18:34.501Z,3.30
2017-12-19T23:21:39.674Z,3.40
2017-12-19T23:24:45.078Z,3.30
2017-12-19T23:27:50.787Z,3.30
2017-12-19T23:30:57.472Z,3.40
2017-12-19T23:34:03.171Z,3.30
2017-12-19T23:37:09.197Z,3.30
2017-12-19T23:40:14.406Z,3.30
2017-12-19T23:43:20.406Z,3.40
2017-12-19T23:46:25.185Z,3.30
2017-12-19T23:49:30.265Z,3.40
2017-12-19T23:52:36.236Z,3.40
2017-12-19T23:55:41.138Z,3.40
2017-12-19T23:58:46.210Z,3.40
